sensor_id;sensor_type;location;lat;lon;timestamp;temperature;humidity
42031;DHT22;27709;52.036;5.906;2023-06-22T00:00:20;19.00;99.90
42031;DHT22;27709;52.036;5.906;2023-06-22T00:02:46;19.00;99.90
42031;DHT22;27709;52.036;5.906;2023-06-22T00:05:12;18.90;99.90
42031;DHT22;27709;52.036;5.906;2023-06-22T00:07:37;19.00;99.90
42031;DHT22;27709;52.036;5.906;2023-06-22T00:10:03;19.00;99.90
42031;DHT22;27709;52.036;5.906;2023-06-22T00:12:28;18.90;99.90
42031;DHT22;27709;52.036;5.906;2023-06-22T00:14:54;18.90;99.90
42031;DHT22;27709;52.036;5.906;2023-06-22T00:17:19;18.90;99.90
42031;DHT22;27709;52.036;5.906;2023-06-22T00:19:46;18.80;99.90
42031;DHT22;27709;52.036;5.906;2023-06-22T00:22:12;18.80;99.90
42031;DHT22;27709;52.036;5.906;2023-06-22T00:24:37;18.70;99.90
42031;DHT22;27709;52.036;5.906;2023-06-22T00:27:03;18.70;99.90
42031;DHT22;27709;52.036;5.906;2023-06-22T00:29:30;18.70;99.90
42031;DHT22;27709;52.036;5.906;2023-06-22T00:31:55;18.70;99.90
42031;DHT22;27709;52.036;5.906;2023-06-22T00:34:21;18.70;99.90
42031;DHT22;27709;52.036;5.906;2023-06-22T00:36:46;18.60;99.90
42031;DHT22;27709;52.036;5.906;2023-06-22T00:39:12;18.60;99.90
42031;DHT22;27709;52.036;5.906;2023-06-22T00:41:37;18.70;99.90
42031;DHT22;27709;52.036;5.906;2023-06-22T00:44:03;18.60;99.90
42031;DHT22;27709;52.036;5.906;2023-06-22T00:46:29;18.60;99.90
42031;DHT22;27709;52.036;5.906;2023-06-22T00:48:54;18.50;99.90
42031;DHT22;27709;52.036;5.906;2023-06-22T00:51:22;18.50;99.90
42031;DHT22;27709;52.036;5.906;2023-06-22T00:53:49;18.50;99.90
42031;DHT22;27709;52.036;5.906;2023-06-22T00:56:15;18.50;99.90
42031;DHT22;27709;52.036;5.906;2023-06-22T00:58:45;18.40;99.90
42031;DHT22;27709;52.036;5.906;2023-06-22T01:01:13;18.50;99.90
42031;DHT22;27709;52.036;5.906;2023-06-22T01:03:39;18.50;99.90
42031;DHT22;27709;52.036;5.906;2023-06-22T01:06:15;18.40;99.90
42031;DHT22;27709;52.036;5.906;2023-06-22T01:08:49;18.40;99.90
42031;DHT22;27709;52.036;5.906;2023-06-22T01:11:17;18.40;99.90
42031;DHT22;27709;52.036;5.906;2023-06-22T01:16:15;18.40;99.90
42031;DHT22;27709;52.036;5.906;2023-06-22T01:18:42;18.40;99.90
42031;DHT22;27709;52.036;5.906;2023-06-22T01:21:09;18.30;99.90
42031;DHT22;27709;52.036;5.906;2023-06-22T01:26:05;18.20;99.90
42031;DHT22;27709;52.036;5.906;2023-06-22T01:28:40;18.30;99.90
42031;DHT22;27709;52.036;5.906;2023-06-22T01:31:07;18.20;99.90
42031;DHT22;27709;52.036;5.906;2023-06-22T01:33:35;18.20;99.90
42031;DHT22;27709;52.036;5.906;2023-06-22T01:36:01;18.20;99.90
42031;DHT22;27709;52.036;5.906;2023-06-22T01:38:27;18.20;99.90
42031;DHT22;27709;52.036;5.906;2023-06-22T01:40:53;18.20;99.90
42031;DHT22;27709;52.036;5.906;2023-06-22T01:43:20;18.10;99.90
42031;DHT22;27709;52.036;5.906;2023-06-22T01:45:48;18.10;99.90
42031;DHT22;27709;52.036;5.906;2023-06-22T01:48:13;18.00;99.90
42031;DHT22;27709;52.036;5.906;2023-06-22T01:50:39;18.00;99.90
42031;DHT22;27709;52.036;5.906;2023-06-22T01:53:05;17.90;99.90
42031;DHT22;27709;52.036;5.906;2023-06-22T01:55:32;17.80;99.90
42031;DHT22;27709;52.036;5.906;2023-06-22T01:57:57;17.80;99.90
42031;DHT22;27709;52.036;5.906;2023-06-22T02:00:23;17.90;99.90
42031;DHT22;27709;52.036;5.906;2023-06-22T02:02:55;17.90;99.90
42031;DHT22;27709;52.036;5.906;2023-06-22T02:05:22;17.90;99.90
42031;DHT22;27709;52.036;5.906;2023-06-22T02:08:51;17.90;99.90
42031;DHT22;27709;52.036;5.906;2023-06-22T02:10:44;17.90;99.90
42031;DHT22;27709;52.036;5.906;2023-06-22T02:13:11;17.80;99.90
42031;DHT22;27709;52.036;5.906;2023-06-22T02:15:38;17.90;99.90
42031;DHT22;27709;52.036;5.906;2023-06-22T02:18:03;17.80;99.90
42031;DHT22;27709;52.036;5.906;2023-06-22T02:20:29;17.70;99.90
42031;DHT22;27709;52.036;5.906;2023-06-22T02:22:54;17.60;99.90
42031;DHT22;27709;52.036;5.906;2023-06-22T02:25:20;17.50;99.90
42031;DHT22;27709;52.036;5.906;2023-06-22T02:27:46;17.50;99.90
42031;DHT22;27709;52.036;5.906;2023-06-22T02:30:11;17.40;99.90
42031;DHT22;27709;52.036;5.906;2023-06-22T02:32:37;17.40;99.90
42031;DHT22;27709;52.036;5.906;2023-06-22T02:35:03;17.40;99.90
42031;DHT22;27709;52.036;5.906;2023-06-22T02:37:32;17.40;99.90
42031;DHT22;27709;52.036;5.906;2023-06-22T02:39:58;17.30;99.90
42031;DHT22;27709;52.036;5.906;2023-06-22T02:42:23;17.30;99.90
42031;DHT22;27709;52.036;5.906;2023-06-22T02:44:49;17.40;99.90
42031;DHT22;27709;52.036;5.906;2023-06-22T02:47:15;17.40;99.90
42031;DHT22;27709;52.036;5.906;2023-06-22T02:49:40;17.40;99.90
42031;DHT22;27709;52.036;5.906;2023-06-22T02:52:07;17.40;99.90
42031;DHT22;27709;52.036;5.906;2023-06-22T02:54:32;17.40;99.90
42031;DHT22;27709;52.036;5.906;2023-06-22T02:56:59;17.40;99.90
42031;DHT22;27709;52.036;5.906;2023-06-22T02:59:28;17.40;99.90
42031;DHT22;27709;52.036;5.906;2023-06-22T03:01:53;17.40;99.90
42031;DHT22;27709;52.036;5.906;2023-06-22T03:04:19;17.30;99.90
42031;DHT22;27709;52.036;5.906;2023-06-22T03:06:44;17.30;99.90
42031;DHT22;27709;52.036;5.906;2023-06-22T03:09:16;17.30;99.90
42031;DHT22;27709;52.036;5.906;2023-06-22T03:11:42;17.20;99.90
42031;DHT22;27709;52.036;5.906;2023-06-22T03:14:07;17.10;99.90
42031;DHT22;27709;52.036;5.906;2023-06-22T03:16:32;17.10;99.90
42031;DHT22;27709;52.036;5.906;2023-06-22T03:18:59;17.10;99.90
42031;DHT22;27709;52.036;5.906;2023-06-22T03:21:26;17.10;99.90
42031;DHT22;27709;52.036;5.906;2023-06-22T03:23:52;17.10;99.90
42031;DHT22;27709;52.036;5.906;2023-06-22T03:26:18;17.20;99.90
42031;DHT22;27709;52.036;5.906;2023-06-22T03:28:43;17.10;99.90
42031;DHT22;27709;52.036;5.906;2023-06-22T03:31:09;17.10;99.90
42031;DHT22;27709;52.036;5.906;2023-06-22T03:33:34;17.10;99.90
42031;DHT22;27709;52.036;5.906;2023-06-22T03:36:00;17.20;99.90
42031;DHT22;27709;52.036;5.906;2023-06-22T03:38:25;17.20;99.90
42031;DHT22;27709;52.036;5.906;2023-06-22T03:40:51;17.20;99.90
42031;DHT22;27709;52.036;5.906;2023-06-22T03:43:16;17.20;99.90
42031;DHT22;27709;52.036;5.906;2023-06-22T03:45:42;17.10;99.90
42031;DHT22;27709;52.036;5.906;2023-06-22T03:48:07;17.00;99.90
42031;DHT22;27709;52.036;5.906;2023-06-22T03:50:32;17.00;99.90
42031;DHT22;27709;52.036;5.906;2023-06-22T03:52:58;16.90;99.90
42031;DHT22;27709;52.036;5.906;2023-06-22T03:55:23;16.90;99.90
42031;DHT22;27709;52.036;5.906;2023-06-22T03:57:49;16.90;99.90
42031;DHT22;27709;52.036;5.906;2023-06-22T04:00:14;16.90;99.90
42031;DHT22;27709;52.036;5.906;2023-06-22T04:02:41;16.90;99.90
42031;DHT22;27709;52.036;5.906;2023-06-22T04:05:08;17.00;99.90
42031;DHT22;27709;52.036;5.906;2023-06-22T04:07:33;17.00;99.90
42031;DHT22;27709;52.036;5.906;2023-06-22T04:09:59;17.10;99.90
42031;DHT22;27709;52.036;5.906;2023-06-22T04:12:24;17.10;99.90
42031;DHT22;27709;52.036;5.906;2023-06-22T04:14:50;17.20;99.90
42031;DHT22;27709;52.036;5.906;2023-06-22T04:17:15;17.20;99.90
42031;DHT22;27709;52.036;5.906;2023-06-22T04:19:43;17.20;99.90
42031;DHT22;27709;52.036;5.906;2023-06-22T04:22:08;17.20;99.90
42031;DHT22;27709;52.036;5.906;2023-06-22T04:24:35;17.20;99.90
42031;DHT22;27709;52.036;5.906;2023-06-22T04:27:00;17.30;99.90
42031;DHT22;27709;52.036;5.906;2023-06-22T04:29:28;17.40;99.90
42031;DHT22;27709;52.036;5.906;2023-06-22T04:31:58;17.50;99.90
42031;DHT22;27709;52.036;5.906;2023-06-22T04:34:28;17.50;99.90
42031;DHT22;27709;52.036;5.906;2023-06-22T04:36:54;17.60;99.90
42031;DHT22;27709;52.036;5.906;2023-06-22T04:39:20;17.60;99.90
42031;DHT22;27709;52.036;5.906;2023-06-22T04:41:45;17.80;99.90
42031;DHT22;27709;52.036;5.906;2023-06-22T04:44:14;17.90;99.90
42031;DHT22;27709;52.036;5.906;2023-06-22T04:46:50;18.00;99.90
42031;DHT22;27709;52.036;5.906;2023-06-22T04:49:19;18.00;99.90
42031;DHT22;27709;52.036;5.906;2023-06-22T04:51:45;18.10;99.90
42031;DHT22;27709;52.036;5.906;2023-06-22T04:54:10;18.10;99.90
42031;DHT22;27709;52.036;5.906;2023-06-22T04:56:36;18.20;99.90
42031;DHT22;27709;52.036;5.906;2023-06-22T04:59:02;18.20;99.90
42031;DHT22;27709;52.036;5.906;2023-06-22T05:01:28;18.20;99.90
42031;DHT22;27709;52.036;5.906;2023-06-22T05:03:54;18.20;99.90
42031;DHT22;27709;52.036;5.906;2023-06-22T05:06:21;18.30;99.90
42031;DHT22;27709;52.036;5.906;2023-06-22T05:08:47;18.40;99.90
42031;DHT22;27709;52.036;5.906;2023-06-22T05:11:12;18.40;99.90
42031;DHT22;27709;52.036;5.906;2023-06-22T05:13:38;18.50;99.90
42031;DHT22;27709;52.036;5.906;2023-06-22T05:16:03;18.60;99.90
42031;DHT22;27709;52.036;5.906;2023-06-22T05:18:29;18.70;99.90
42031;DHT22;27709;52.036;5.906;2023-06-22T05:20:55;18.80;99.90
42031;DHT22;27709;52.036;5.906;2023-06-22T05:23:20;18.90;99.90
42031;DHT22;27709;52.036;5.906;2023-06-22T05:25:46;18.90;99.90
42031;DHT22;27709;52.036;5.906;2023-06-22T05:28:11;19.00;99.90
42031;DHT22;27709;52.036;5.906;2023-06-22T05:30:37;19.10;99.90
42031;DHT22;27709;52.036;5.906;2023-06-22T05:33:03;19.10;99.90
42031;DHT22;27709;52.036;5.906;2023-06-22T05:35:29;19.20;99.90
42031;DHT22;27709;52.036;5.906;2023-06-22T05:37:54;19.30;99.90
42031;DHT22;27709;52.036;5.906;2023-06-22T05:40:20;19.40;99.90
42031;DHT22;27709;52.036;5.906;2023-06-22T05:42:46;19.50;99.90
42031;DHT22;27709;52.036;5.906;2023-06-22T05:45:11;19.60;99.90
42031;DHT22;27709;52.036;5.906;2023-06-22T05:47:37;19.70;99.90
42031;DHT22;27709;52.036;5.906;2023-06-22T05:50:02;19.80;99.90
42031;DHT22;27709;52.036;5.906;2023-06-22T05:52:32;20.00;99.90
42031;DHT22;27709;52.036;5.906;2023-06-22T05:54:57;20.20;99.90
42031;DHT22;27709;52.036;5.906;2023-06-22T05:57:23;20.30;99.90
42031;DHT22;27709;52.036;5.906;2023-06-22T05:59:48;20.40;99.90
42031;DHT22;27709;52.036;5.906;2023-06-22T06:02:14;20.50;99.90
42031;DHT22;27709;52.036;5.906;2023-06-22T06:04:39;20.80;99.90
42031;DHT22;27709;52.036;5.906;2023-06-22T06:07:05;21.20;99.90
42031;DHT22;27709;52.036;5.906;2023-06-22T06:09:30;21.60;99.90
42031;DHT22;27709;52.036;5.906;2023-06-22T06:11:56;22.10;99.90
42031;DHT22;27709;52.036;5.906;2023-06-22T06:14:21;22.80;99.90
42031;DHT22;27709;52.036;5.906;2023-06-22T06:16:48;23.50;99.90
42031;DHT22;27709;52.036;5.906;2023-06-22T06:19:13;24.00;98.80
42031;DHT22;27709;52.036;5.906;2023-06-22T06:21:39;24.40;98.50
42031;DHT22;27709;52.036;5.906;2023-06-22T06:24:04;24.90;96.90
42031;DHT22;27709;52.036;5.906;2023-06-22T06:26:30;25.30;96.30
42031;DHT22;27709;52.036;5.906;2023-06-22T06:28:59;25.70;94.90
42031;DHT22;27709;52.036;5.906;2023-06-22T06:31:25;26.10;94.20
42031;DHT22;27709;52.036;5.906;2023-06-22T06:33:52;26.40;93.70
42031;DHT22;27709;52.036;5.906;2023-06-22T06:36:19;26.70;93.00
42031;DHT22;27709;52.036;5.906;2023-06-22T06:38:44;26.90;92.50
42031;DHT22;27709;52.036;5.906;2023-06-22T06:41:13;27.20;92.20
42031;DHT22;27709;52.036;5.906;2023-06-22T06:43:38;27.50;90.80
42031;DHT22;27709;52.036;5.906;2023-06-22T06:46:03;27.70;90.70
42031;DHT22;27709;52.036;5.906;2023-06-22T06:48:29;28.00;89.30
42031;DHT22;27709;52.036;5.906;2023-06-22T06:50:54;28.20;89.40
42031;DHT22;27709;52.036;5.906;2023-06-22T06:53:20;28.40;86.50
42031;DHT22;27709;52.036;5.906;2023-06-22T06:55:45;28.50;86.20
42031;DHT22;27709;52.036;5.906;2023-06-22T06:58:11;28.60;86.70
42031;DHT22;27709;52.036;5.906;2023-06-22T07:00:38;28.70;85.90
42031;DHT22;27709;52.036;5.906;2023-06-22T07:03:04;28.70;86.00
42031;DHT22;27709;52.036;5.906;2023-06-22T07:05:30;28.80;87.00
42031;DHT22;27709;52.036;5.906;2023-06-22T07:07:55;28.90;85.20
42031;DHT22;27709;52.036;5.906;2023-06-22T07:10:21;29.00;85.10
42031;DHT22;27709;52.036;5.906;2023-06-22T07:12:46;29.10;86.30
42031;DHT22;27709;52.036;5.906;2023-06-22T07:15:13;29.30;84.60
42031;DHT22;27709;52.036;5.906;2023-06-22T07:17:39;29.50;83.40
42031;DHT22;27709;52.036;5.906;2023-06-22T07:20:06;29.90;83.00
42031;DHT22;27709;52.036;5.906;2023-06-22T07:22:33;30.10;81.40
42031;DHT22;27709;52.036;5.906;2023-06-22T07:24:59;29.90;80.90
42031;DHT22;27709;52.036;5.906;2023-06-22T07:27:24;29.40;81.30
42031;DHT22;27709;52.036;5.906;2023-06-22T07:29:50;28.90;83.30
42031;DHT22;27709;52.036;5.906;2023-06-22T07:32:15;28.60;84.00
42031;DHT22;27709;52.036;5.906;2023-06-22T07:34:41;28.30;84.10
42031;DHT22;27709;52.036;5.906;2023-06-22T07:37:06;28.20;86.30
42031;DHT22;27709;52.036;5.906;2023-06-22T07:39:32;28.30;86.30
42031;DHT22;27709;52.036;5.906;2023-06-22T07:41:57;28.50;86.50
42031;DHT22;27709;52.036;5.906;2023-06-22T07:44:23;28.60;85.20
42031;DHT22;27709;52.036;5.906;2023-06-22T07:46:48;28.80;84.70
42031;DHT22;27709;52.036;5.906;2023-06-22T07:49:14;28.80;84.00
42031;DHT22;27709;52.036;5.906;2023-06-22T07:51:39;28.70;84.60
42031;DHT22;27709;52.036;5.906;2023-06-22T07:54:05;28.70;84.90
42031;DHT22;27709;52.036;5.906;2023-06-22T07:56:30;28.60;84.30
42031;DHT22;27709;52.036;5.906;2023-06-22T07:58:56;28.60;84.40
42031;DHT22;27709;52.036;5.906;2023-06-22T08:01:23;28.60;84.30
42031;DHT22;27709;52.036;5.906;2023-06-22T08:03:49;28.60;84.50
42031;DHT22;27709;52.036;5.906;2023-06-22T08:06:14;28.60;84.70
42031;DHT22;27709;52.036;5.906;2023-06-22T08:08:40;28.50;84.50
42031;DHT22;27709;52.036;5.906;2023-06-22T08:11:05;28.30;84.60
42031;DHT22;27709;52.036;5.906;2023-06-22T08:13:31;28.10;84.90
42031;DHT22;27709;52.036;5.906;2023-06-22T08:15:56;27.90;85.90
42031;DHT22;27709;52.036;5.906;2023-06-22T08:18:22;27.70;85.20
42031;DHT22;27709;52.036;5.906;2023-06-22T08:20:47;27.50;86.30
42031;DHT22;27709;52.036;5.906;2023-06-22T08:23:13;27.40;85.50
42031;DHT22;27709;52.036;5.906;2023-06-22T08:25:38;27.30;85.40
42031;DHT22;27709;52.036;5.906;2023-06-22T08:28:03;27.30;86.10
42031;DHT22;27709;52.036;5.906;2023-06-22T08:30:29;27.40;87.00
42031;DHT22;27709;52.036;5.906;2023-06-22T08:32:55;27.40;87.00
42031;DHT22;27709;52.036;5.906;2023-06-22T08:35:21;27.40;86.90
42031;DHT22;27709;52.036;5.906;2023-06-22T08:37:47;27.30;86.70
42031;DHT22;27709;52.036;5.906;2023-06-22T08:40:17;27.20;86.20
42031;DHT22;27709;52.036;5.906;2023-06-22T08:42:42;27.20;86.10
42031;DHT22;27709;52.036;5.906;2023-06-22T08:45:08;27.20;86.90
42031;DHT22;27709;52.036;5.906;2023-06-22T08:47:34;27.30;86.90
42031;DHT22;27709;52.036;5.906;2023-06-22T08:49:59;27.50;86.60
42031;DHT22;27709;52.036;5.906;2023-06-22T08:52:27;27.90;86.20
42031;DHT22;27709;52.036;5.906;2023-06-22T08:54:53;28.30;85.60
42031;DHT22;27709;52.036;5.906;2023-06-22T08:57:18;28.50;83.90
42031;DHT22;27709;52.036;5.906;2023-06-22T08:59:43;28.50;83.70
42031;DHT22;27709;52.036;5.906;2023-06-22T09:02:09;28.30;83.80
42031;DHT22;27709;52.036;5.906;2023-06-22T09:04:34;28.20;84.40
42031;DHT22;27709;52.036;5.906;2023-06-22T09:07:03;28.00;82.80
42031;DHT22;27709;52.036;5.906;2023-06-22T09:09:29;27.70;83.60
42031;DHT22;27709;52.036;5.906;2023-06-22T09:11:54;27.50;85.10
42031;DHT22;27709;52.036;5.906;2023-06-22T09:14:20;27.30;85.20
42031;DHT22;27709;52.036;5.906;2023-06-22T09:16:45;27.30;85.60
42031;DHT22;27709;52.036;5.906;2023-06-22T09:19:11;27.30;85.70
42031;DHT22;27709;52.036;5.906;2023-06-22T09:21:36;27.40;85.60
42031;DHT22;27709;52.036;5.906;2023-06-22T09:24:02;27.60;86.10
42031;DHT22;27709;52.036;5.906;2023-06-22T09:26:27;27.80;86.30
42031;DHT22;27709;52.036;5.906;2023-06-22T09:28:53;28.20;87.00
42031;DHT22;27709;52.036;5.906;2023-06-22T09:31:19;28.70;84.50
42031;DHT22;27709;52.036;5.906;2023-06-22T09:33:53;28.90;84.20
42031;DHT22;27709;52.036;5.906;2023-06-22T09:36:20;29.00;82.90
42031;DHT22;27709;52.036;5.906;2023-06-22T09:38:45;28.80;81.40
42031;DHT22;27709;52.036;5.906;2023-06-22T09:41:10;28.60;81.10
42031;DHT22;27709;52.036;5.906;2023-06-22T09:43:39;28.40;81.40
42031;DHT22;27709;52.036;5.906;2023-06-22T09:46:04;28.20;81.10
42031;DHT22;27709;52.036;5.906;2023-06-22T09:48:32;28.00;81.60
42031;DHT22;27709;52.036;5.906;2023-06-22T09:50:57;27.90;83.10
42031;DHT22;27709;52.036;5.906;2023-06-22T09:53:23;27.80;82.70
42031;DHT22;27709;52.036;5.906;2023-06-22T09:55:48;27.80;83.00
42031;DHT22;27709;52.036;5.906;2023-06-22T09:58:16;27.70;83.70
42031;DHT22;27709;52.036;5.906;2023-06-22T10:00:42;27.60;83.10
42031;DHT22;27709;52.036;5.906;2023-06-22T10:03:07;27.50;82.90
42031;DHT22;27709;52.036;5.906;2023-06-22T10:05:49;27.50;84.00
42031;DHT22;27709;52.036;5.906;2023-06-22T10:08:14;27.40;84.50
42031;DHT22;27709;52.036;5.906;2023-06-22T10:10:40;27.40;83.70
42031;DHT22;27709;52.036;5.906;2023-06-22T10:13:09;27.30;83.50
42031;DHT22;27709;52.036;5.906;2023-06-22T10:15:41;27.20;83.30
42031;DHT22;27709;52.036;5.906;2023-06-22T10:18:06;27.00;83.70
42031;DHT22;27709;52.036;5.906;2023-06-22T10:20:33;26.90;84.60
42031;DHT22;27709;52.036;5.906;2023-06-22T10:22:59;26.70;84.70
42031;DHT22;27709;52.036;5.906;2023-06-22T10:25:24;26.70;85.50
42031;DHT22;27709;52.036;5.906;2023-06-22T10:27:51;26.60;86.70
42031;DHT22;27709;52.036;5.906;2023-06-22T10:30:16;26.60;86.90
42031;DHT22;27709;52.036;5.906;2023-06-22T10:32:42;26.40;87.00
42031;DHT22;27709;52.036;5.906;2023-06-22T10:35:17;26.40;88.00
42031;DHT22;27709;52.036;5.906;2023-06-22T10:37:43;26.40;88.80
42031;DHT22;27709;52.036;5.906;2023-06-22T10:40:09;26.30;85.70
42031;DHT22;27709;52.036;5.906;2023-06-22T10:42:36;26.30;86.00
42031;DHT22;27709;52.036;5.906;2023-06-22T10:45:03;26.20;86.00
42031;DHT22;27709;52.036;5.906;2023-06-22T10:47:28;26.30;85.90
42031;DHT22;27709;52.036;5.906;2023-06-22T10:49:54;26.30;86.70
42031;DHT22;27709;52.036;5.906;2023-06-22T10:52:19;26.40;86.00
42031;DHT22;27709;52.036;5.906;2023-06-22T10:54:44;26.40;85.90
42031;DHT22;27709;52.036;5.906;2023-06-22T10:57:10;26.50;86.30
42031;DHT22;27709;52.036;5.906;2023-06-22T10:59:35;26.60;86.70
42031;DHT22;27709;52.036;5.906;2023-06-22T11:02:01;26.70;87.50
42031;DHT22;27709;52.036;5.906;2023-06-22T11:04:27;26.80;87.30
42031;DHT22;27709;52.036;5.906;2023-06-22T11:06:52;26.80;86.50
42031;DHT22;27709;52.036;5.906;2023-06-22T11:09:18;26.80;86.10
42031;DHT22;27709;52.036;5.906;2023-06-22T11:11:46;26.80;85.40
42031;DHT22;27709;52.036;5.906;2023-06-22T11:14:12;26.70;86.00
42031;DHT22;27709;52.036;5.906;2023-06-22T11:16:37;26.70;86.10
42031;DHT22;27709;52.036;5.906;2023-06-22T11:19:04;26.70;86.10
42031;DHT22;27709;52.036;5.906;2023-06-22T11:21:30;26.70;86.90
42031;DHT22;27709;52.036;5.906;2023-06-22T11:23:56;26.70;86.50
42031;DHT22;27709;52.036;5.906;2023-06-22T11:26:22;26.60;86.10
42031;DHT22;27709;52.036;5.906;2023-06-22T11:28:47;26.60;85.60
42031;DHT22;27709;52.036;5.906;2023-06-22T11:31:13;26.60;86.30
42031;DHT22;27709;52.036;5.906;2023-06-22T11:33:39;26.60;86.80
42031;DHT22;27709;52.036;5.906;2023-06-22T11:36:05;26.50;86.80
42031;DHT22;27709;52.036;5.906;2023-06-22T11:38:30;26.50;84.70
42031;DHT22;27709;52.036;5.906;2023-06-22T11:40:57;26.50;85.50
42031;DHT22;27709;52.036;5.906;2023-06-22T11:43:23;26.40;86.10
42031;DHT22;27709;52.036;5.906;2023-06-22T11:45:48;26.30;87.20
42031;DHT22;27709;52.036;5.906;2023-06-22T11:48:14;26.20;87.20
42031;DHT22;27709;52.036;5.906;2023-06-22T11:50:39;26.10;88.10
42031;DHT22;27709;52.036;5.906;2023-06-22T11:53:05;25.90;90.00
42031;DHT22;27709;52.036;5.906;2023-06-22T11:55:30;25.80;90.40
42031;DHT22;27709;52.036;5.906;2023-06-22T11:57:56;25.60;90.30
42031;DHT22;27709;52.036;5.906;2023-06-22T12:00:25;25.40;90.20
42031;DHT22;27709;52.036;5.906;2023-06-22T12:02:50;25.20;90.50
42031;DHT22;27709;52.036;5.906;2023-06-22T12:05:19;25.10;90.70
42031;DHT22;27709;52.036;5.906;2023-06-22T12:07:45;24.90;91.50
42031;DHT22;27709;52.036;5.906;2023-06-22T12:10:11;24.80;92.90
42031;DHT22;27709;52.036;5.906;2023-06-22T12:12:37;24.60;93.30
42031;DHT22;27709;52.036;5.906;2023-06-22T12:15:02;24.40;93.90
42031;DHT22;27709;52.036;5.906;2023-06-22T12:17:29;24.20;94.70
42031;DHT22;27709;52.036;5.906;2023-06-22T12:19:55;24.00;95.60
42031;DHT22;27709;52.036;5.906;2023-06-22T12:22:20;23.90;96.40
42031;DHT22;27709;52.036;5.906;2023-06-22T12:24:46;23.80;97.10
42031;DHT22;27709;52.036;5.906;2023-06-22T12:27:11;23.70;98.40
42031;DHT22;27709;52.036;5.906;2023-06-22T12:29:36;23.60;98.30
42031;DHT22;27709;52.036;5.906;2023-06-22T12:32:02;23.50;98.70
42031;DHT22;27709;52.036;5.906;2023-06-22T12:34:28;23.30;99.40
42031;DHT22;27709;52.036;5.906;2023-06-22T12:36:53;23.20;99.90
42031;DHT22;27709;52.036;5.906;2023-06-22T12:39:20;23.20;99.90
42031;DHT22;27709;52.036;5.906;2023-06-22T12:41:45;23.00;99.90
42031;DHT22;27709;52.036;5.906;2023-06-22T12:44:11;23.00;99.90
42031;DHT22;27709;52.036;5.906;2023-06-22T12:46:39;22.90;99.90
42031;DHT22;27709;52.036;5.906;2023-06-22T12:49:04;22.90;99.90
42031;DHT22;27709;52.036;5.906;2023-06-22T12:51:39;22.90;99.90
42031;DHT22;27709;52.036;5.906;2023-06-22T12:54:04;22.90;99.90
42031;DHT22;27709;52.036;5.906;2023-06-22T12:56:29;22.80;99.90
42031;DHT22;27709;52.036;5.906;2023-06-22T12:58:55;22.80;99.90
42031;DHT22;27709;52.036;5.906;2023-06-22T13:01:20;22.80;99.90
42031;DHT22;27709;52.036;5.906;2023-06-22T13:03:47;22.70;99.90
42031;DHT22;27709;52.036;5.906;2023-06-22T13:06:12;22.70;99.90
42031;DHT22;27709;52.036;5.906;2023-06-22T13:08:39;22.60;99.90
42031;DHT22;27709;52.036;5.906;2023-06-22T13:11:05;22.60;99.90
42031;DHT22;27709;52.036;5.906;2023-06-22T13:13:32;22.60;99.90
42031;DHT22;27709;52.036;5.906;2023-06-22T13:15:59;22.60;99.90
42031;DHT22;27709;52.036;5.906;2023-06-22T13:18:24;22.60;99.90
42031;DHT22;27709;52.036;5.906;2023-06-22T13:20:50;22.60;99.90
42031;DHT22;27709;52.036;5.906;2023-06-22T13:23:15;22.50;99.90
42031;DHT22;27709;52.036;5.906;2023-06-22T13:25:41;22.60;99.90
42031;DHT22;27709;52.036;5.906;2023-06-22T13:28:08;22.60;99.90
42031;DHT22;27709;52.036;5.906;2023-06-22T13:30:41;22.50;99.90
42031;DHT22;27709;52.036;5.906;2023-06-22T13:33:16;22.50;99.90
42031;DHT22;27709;52.036;5.906;2023-06-22T13:35:42;22.50;99.90
42031;DHT22;27709;52.036;5.906;2023-06-22T13:38:09;22.40;99.90
42031;DHT22;27709;52.036;5.906;2023-06-22T13:40:35;22.30;99.90
42031;DHT22;27709;52.036;5.906;2023-06-22T13:43:01;22.20;99.90
42031;DHT22;27709;52.036;5.906;2023-06-22T13:45:27;22.10;99.90
42031;DHT22;27709;52.036;5.906;2023-06-22T13:47:52;22.10;99.90
42031;DHT22;27709;52.036;5.906;2023-06-22T13:50:19;22.00;99.90
42031;DHT22;27709;52.036;5.906;2023-06-22T13:52:46;22.10;99.90
42031;DHT22;27709;52.036;5.906;2023-06-22T13:55:18;22.10;99.90
42031;DHT22;27709;52.036;5.906;2023-06-22T13:57:56;22.10;99.90
42031;DHT22;27709;52.036;5.906;2023-06-22T14:00:26;22.00;99.90
42031;DHT22;27709;52.036;5.906;2023-06-22T14:09:12;22.00;99.90
42031;DHT22;27709;52.036;5.906;2023-06-22T14:16:48;22.00;99.90
42031;DHT22;27709;52.036;5.906;2023-06-22T14:19:16;22.00;99.90
42031;DHT22;27709;52.036;5.906;2023-06-22T14:21:42;22.00;99.90
42031;DHT22;27709;52.036;5.906;2023-06-22T14:24:07;21.90;99.90
42031;DHT22;27709;52.036;5.906;2023-06-22T14:26:33;21.90;99.90
42031;DHT22;27709;52.036;5.906;2023-06-22T14:28:58;21.90;99.90
42031;DHT22;27709;52.036;5.906;2023-06-22T14:31:25;21.80;99.90
42031;DHT22;27709;52.036;5.906;2023-06-22T14:33:50;21.70;99.90
42031;DHT22;27709;52.036;5.906;2023-06-22T14:36:16;21.70;99.90
42031;DHT22;27709;52.036;5.906;2023-06-22T14:38:42;21.60;99.90
42031;DHT22;27709;52.036;5.906;2023-06-22T14:41:08;21.60;99.90
42031;DHT22;27709;52.036;5.906;2023-06-22T14:43:33;21.50;99.90
42031;DHT22;27709;52.036;5.906;2023-06-22T14:45:59;21.40;99.90
42031;DHT22;27709;52.036;5.906;2023-06-22T14:48:24;21.40;99.90
42031;DHT22;27709;52.036;5.906;2023-06-22T14:50:50;21.40;99.90
42031;DHT22;27709;52.036;5.906;2023-06-22T14:53:16;21.30;99.90
42031;DHT22;27709;52.036;5.906;2023-06-22T14:55:42;21.20;99.90
42031;DHT22;27709;52.036;5.906;2023-06-22T14:58:07;21.10;99.90
42031;DHT22;27709;52.036;5.906;2023-06-22T15:00:33;21.00;99.90
42031;DHT22;27709;52.036;5.906;2023-06-22T15:02:58;21.00;99.90
42031;DHT22;27709;52.036;5.906;2023-06-22T15:05:24;21.00;99.90
42031;DHT22;27709;52.036;5.906;2023-06-22T15:07:50;20.90;99.90
42031;DHT22;27709;52.036;5.906;2023-06-22T15:10:15;20.80;99.90
42031;DHT22;27709;52.036;5.906;2023-06-22T15:12:41;20.80;99.90
42031;DHT22;27709;52.036;5.906;2023-06-22T15:15:07;20.70;99.90
42031;DHT22;27709;52.036;5.906;2023-06-22T15:17:32;20.70;99.90
42031;DHT22;27709;52.036;5.906;2023-06-22T15:19:58;20.70;99.90
42031;DHT22;27709;52.036;5.906;2023-06-22T15:22:23;20.60;99.90
42031;DHT22;27709;52.036;5.906;2023-06-22T15:24:49;20.60;99.90
42031;DHT22;27709;52.036;5.906;2023-06-22T15:27:14;20.60;99.90
42031;DHT22;27709;52.036;5.906;2023-06-22T15:29:40;20.60;99.90
42031;DHT22;27709;52.036;5.906;2023-06-22T15:32:06;20.70;99.90
42031;DHT22;27709;52.036;5.906;2023-06-22T15:34:31;20.70;99.90
42031;DHT22;27709;52.036;5.906;2023-06-22T15:36:57;20.70;99.90
42031;DHT22;27709;52.036;5.906;2023-06-22T15:39:23;20.70;99.90